Aérodrome :
LOGIN :

S'inscrire | Disclaimer

   EN    FR    IT 

 










Légende :    VFR   VFR Marginal   IFR   IFR Intensif   IFR Très Intensif
Visi : 
Plafond : 
>= 8 km
>= 3000ft
5 à 8 km
1000 à 3000 ft
1500m à 5 km
500 à 1000 ft
800 à 1500m
200 à 500 ft
< 800m
< 200 ft
Symboles :   Orages  Brouillard  Fortes neiges  Fortes précipitations  Vent > 20 kt
SIGMETs :   Divers  Orages  Givrage  Turbulence  Onde Orograph.  Cendres Volcan.







- Altitude de l'aérodrome : 2044 ft


ETSA - Landsberg-Lech AB

DERNIER METAR :
  • 231120Z 09004KT 9999 FEW020 SCT280 12/06 Q1014 BLU+BLU+

METARs EXPIRÉS :
  • 231020Z 12007KT 8000 FEW015 SCT090 11/05 Q1014 BLU+BLU+ TEMPO WHT
  • 230920Z 11011KT 8000 FEW005 SCT090 09/05 Q1014 BLU+BLU+ TEMPO WHT

TAF TAF ETSA
Valide du 23 à 12h jusqu'au 23 à 21h UTC


231105Z 2312/2321 07010KT 8000 NSW SCT250
TEMPO 2312/2318 14010KT 9999 NSW SCT030
BECMG 2318/2321 09005KT 4000 BR SKC BY ETGL
Pas de NOTAMs connus pour ce terrain.



MET'MAP, la Météo Aéronautique d'un coup d'oeil ! - Copyright ORBIFLY Décembre 2007 - Disclaimer

ORBIFLY MET'MAP TEAM :

Programmation & Développement : Alexandra Zaïnal
Conception & Développement : Baudouin d'Aumeries
Co-Programmation & Développement : Marc-Olivier Méhu
Soutien technique & logistique : Manuel Goepfert

Contact : metmap@orbifly.com




SOURCES & CREDITS :

   NOAA